sensor_id;sensor_type;location;lat;lon;timestamp;temperature;humidity
1888;DHT22;944;51.574;6.980;2023-02-28T00:02:08;1.00;99.90
1888;DHT22;944;51.574;6.980;2023-02-28T00:04:35;0.90;99.90
1888;DHT22;944;51.574;6.980;2023-02-28T00:07:31;1.00;99.90
1888;DHT22;944;51.574;6.980;2023-02-28T00:10:24;1.00;99.90
1888;DHT22;944;51.574;6.980;2023-02-28T00:12:56;0.90;99.90
1888;DHT22;944;51.574;6.980;2023-02-28T00:15:38;0.90;99.90
1888;DHT22;944;51.574;6.980;2023-02-28T00:18:12;0.90;99.90
1888;DHT22;944;51.574;6.980;2023-02-28T00:20:40;0.90;99.90
1888;DHT22;944;51.574;6.980;2023-02-28T00:23:10;0.80;99.90
1888;DHT22;944;51.574;6.980;2023-02-28T00:25:42;1.00;99.90
1888;DHT22;944;51.574;6.980;2023-02-28T00:28:12;0.80;99.90
1888;DHT22;944;51.574;6.980;2023-02-28T00:30:41;0.80;99.90
1888;DHT22;944;51.574;6.980;2023-02-28T00:33:19;0.70;99.90
1888;DHT22;944;51.574;6.980;2023-02-28T00:36:00;0.60;99.90
1888;DHT22;944;51.574;6.980;2023-02-28T00:38:32;0.70;99.90
1888;DHT22;944;51.574;6.980;2023-02-28T00:41:04;0.50;99.90
1888;DHT22;944;51.574;6.980;2023-02-28T00:43:37;0.50;99.90
1888;DHT22;944;51.574;6.980;2023-02-28T00:46:09;0.40;99.90
1888;DHT22;944;51.574;6.980;2023-02-28T00:48:36;0.40;99.90
1888;DHT22;944;51.574;6.980;2023-02-28T00:51:04;0.30;99.90
1888;DHT22;944;51.574;6.980;2023-02-28T00:53:31;0.30;99.90
1888;DHT22;944;51.574;6.980;2023-02-28T00:56:01;0.20;99.90
1888;DHT22;944;51.574;6.980;2023-02-28T00:58:28;0.30;99.90
1888;DHT22;944;51.574;6.980;2023-02-28T01:00:55;0.30;99.90
1888;DHT22;944;51.574;6.980;2023-02-28T01:03:24;0.30;99.90
1888;DHT22;944;51.574;6.980;2023-02-28T01:05:54;0.30;99.90
1888;DHT22;944;51.574;6.980;2023-02-28T01:08:21;0.20;99.90
1888;DHT22;944;51.574;6.980;2023-02-28T01:10:51;0.20;99.90
1888;DHT22;944;51.574;6.980;2023-02-28T01:13:19;0.20;99.90
1888;DHT22;944;51.574;6.980;2023-02-28T01:15:50;0.30;99.90
1888;DHT22;944;51.574;6.980;2023-02-28T01:18:19;0.30;99.90
1888;DHT22;944;51.574;6.980;2023-02-28T01:20:54;0.20;99.90
1888;DHT22;944;51.574;6.980;2023-02-28T01:23:22;0.20;99.90
1888;DHT22;944;51.574;6.980;2023-02-28T01:25:50;0.20;99.90
1888;DHT22;944;51.574;6.980;2023-02-28T01:28:21;0.20;99.90
1888;DHT22;944;51.574;6.980;2023-02-28T01:30:48;0.20;99.90
1888;DHT22;944;51.574;6.980;2023-02-28T01:33:37;0.20;99.90
1888;DHT22;944;51.574;6.980;2023-02-28T01:36:26;0.10;99.90
1888;DHT22;944;51.574;6.980;2023-02-28T01:38:53;0.10;99.90
1888;DHT22;944;51.574;6.980;2023-02-28T01:41:22;0.00;99.90
1888;DHT22;944;51.574;6.980;2023-02-28T01:43:57;0.10;99.90
1888;DHT22;944;51.574;6.980;2023-02-28T01:46:29;0.10;99.90
1888;DHT22;944;51.574;6.980;2023-02-28T01:49:01;0.20;99.90
1888;DHT22;944;51.574;6.980;2023-02-28T01:51:38;0.20;99.90
1888;DHT22;944;51.574;6.980;2023-02-28T01:54:14;0.20;99.90
1888;DHT22;944;51.574;6.980;2023-02-28T01:56:47;0.20;99.90
1888;DHT22;944;51.574;6.980;2023-02-28T01:59:22;0.20;99.90
1888;DHT22;944;51.574;6.980;2023-02-28T02:01:53;0.10;99.90
1888;DHT22;944;51.574;6.980;2023-02-28T02:04:22;0.10;99.90
1888;DHT22;944;51.574;6.980;2023-02-28T02:06:52;0.00;99.90
1888;DHT22;944;51.574;6.980;2023-02-28T02:09:19;0.00;99.90
1888;DHT22;944;51.574;6.980;2023-02-28T02:11:48;0.00;99.90
1888;DHT22;944;51.574;6.980;2023-02-28T02:14:43;-0.10;99.90
1888;DHT22;944;51.574;6.980;2023-02-28T02:17:29;-0.20;99.90
1888;DHT22;944;51.574;6.980;2023-02-28T02:20:42;-0.10;99.90
1888;DHT22;944;51.574;6.980;2023-02-28T02:24:00;-0.20;99.90
1888;DHT22;944;51.574;6.980;2023-02-28T02:27:08;-0.30;99.90
1888;DHT22;944;51.574;6.980;2023-02-28T02:30:26;-0.30;99.90
1888;DHT22;944;51.574;6.980;2023-02-28T02:33:28;-0.30;99.90
1888;DHT22;944;51.574;6.980;2023-02-28T02:36:31;-0.30;99.90
1888;DHT22;944;51.574;6.980;2023-02-28T02:39:06;-0.30;99.90
1888;DHT22;944;51.574;6.980;2023-02-28T02:41:45;-0.30;99.90
1888;DHT22;944;51.574;6.980;2023-02-28T02:44:18;-0.20;99.90
1888;DHT22;944;51.574;6.980;2023-02-28T02:46:52;-0.20;99.90
1888;DHT22;944;51.574;6.980;2023-02-28T02:49:27;0.00;99.90
1888;DHT22;944;51.574;6.980;2023-02-28T02:51:58;0.00;99.90
1888;DHT22;944;51.574;6.980;2023-02-28T02:54:32;-0.20;99.90
1888;DHT22;944;51.574;6.980;2023-02-28T03:00:48;0.00;99.90
1888;DHT22;944;51.574;6.980;2023-02-28T03:03:50;-0.10;99.90
1888;DHT22;944;51.574;6.980;2023-02-28T03:06:24;-0.20;99.90
1888;DHT22;944;51.574;6.980;2023-02-28T03:08:52;-0.40;99.90
1888;DHT22;944;51.574;6.980;2023-02-28T03:11:20;-0.20;99.90
1888;DHT22;944;51.574;6.980;2023-02-28T03:13:59;-0.30;99.90
1888;DHT22;944;51.574;6.980;2023-02-28T03:16:45;-0.30;99.90
1888;DHT22;944;51.574;6.980;2023-02-28T03:19:40;-0.30;99.90
1888;DHT22;944;51.574;6.980;2023-02-28T03:22:50;-0.30;99.90
1888;DHT22;944;51.574;6.980;2023-02-28T03:25:26;-0.30;99.90
1888;DHT22;944;51.574;6.980;2023-02-28T03:28:03;-0.30;99.90
1888;DHT22;944;51.574;6.980;2023-02-28T03:30:41;-0.30;99.90
1888;DHT22;944;51.574;6.980;2023-02-28T03:33:14;-0.30;99.90
1888;DHT22;944;51.574;6.980;2023-02-28T03:35:58;-0.30;99.90
1888;DHT22;944;51.574;6.980;2023-02-28T03:39:11;-0.30;99.90
1888;DHT22;944;51.574;6.980;2023-02-28T03:42:08;-0.50;99.90
1888;DHT22;944;51.574;6.980;2023-02-28T03:44:42;-0.30;99.90
1888;DHT22;944;51.574;6.980;2023-02-28T03:47:52;-0.40;99.90
1888;DHT22;944;51.574;6.980;2023-02-28T03:50:29;-0.30;99.90
1888;DHT22;944;51.574;6.980;2023-02-28T03:53:19;-0.30;99.90
1888;DHT22;944;51.574;6.980;2023-02-28T03:59:39;-0.30;99.90
1888;DHT22;944;51.574;6.980;2023-02-28T04:02:08;-0.40;99.90
1888;DHT22;944;51.574;6.980;2023-02-28T04:15:35;-0.40;99.90
1888;DHT22;944;51.574;6.980;2023-02-28T04:18:02;-0.40;99.90
1888;DHT22;944;51.574;6.980;2023-02-28T04:20:29;-0.40;99.90
1888;DHT22;944;51.574;6.980;2023-02-28T04:22:56;-0.40;99.90
1888;DHT22;944;51.574;6.980;2023-02-28T04:25:23;-0.40;99.90
1888;DHT22;944;51.574;6.980;2023-02-28T04:27:50;-0.40;99.90
1888;DHT22;944;51.574;6.980;2023-02-28T04:30:17;-0.40;99.90
1888;DHT22;944;51.574;6.980;2023-02-28T04:32:46;-0.40;99.90
1888;DHT22;944;51.574;6.980;2023-02-28T04:35:13;-0.50;99.90
1888;DHT22;944;51.574;6.980;2023-02-28T04:37:41;-0.50;99.90
1888;DHT22;944;51.574;6.980;2023-02-28T04:40:09;-0.40;99.90
1888;DHT22;944;51.574;6.980;2023-02-28T04:42:37;-0.50;99.90
1888;DHT22;944;51.574;6.980;2023-02-28T04:45:05;-0.50;99.90
1888;DHT22;944;51.574;6.980;2023-02-28T04:47:35;-0.50;99.90
1888;DHT22;944;51.574;6.980;2023-02-28T04:50:08;-0.50;99.90
1888;DHT22;944;51.574;6.980;2023-02-28T04:52:35;-0.50;99.90
1888;DHT22;944;51.574;6.980;2023-02-28T04:55:03;-0.60;99.90
1888;DHT22;944;51.574;6.980;2023-02-28T04:57:31;-0.60;99.90
1888;DHT22;944;51.574;6.980;2023-02-28T04:59:58;-0.60;99.90
1888;DHT22;944;51.574;6.980;2023-02-28T05:02:25;-0.60;99.90
1888;DHT22;944;51.574;6.980;2023-02-28T05:04:52;-0.70;99.90
1888;DHT22;944;51.574;6.980;2023-02-28T05:07:20;-0.80;99.90
1888;DHT22;944;51.574;6.980;2023-02-28T05:09:47;-0.80;99.90
1888;DHT22;944;51.574;6.980;2023-02-28T05:12:14;-0.70;99.90
1888;DHT22;944;51.574;6.980;2023-02-28T05:14:41;-0.70;99.90
1888;DHT22;944;51.574;6.980;2023-02-28T05:17:09;-0.70;99.90
1888;DHT22;944;51.574;6.980;2023-02-28T05:19:36;-0.60;99.90
1888;DHT22;944;51.574;6.980;2023-02-28T05:22:03;-0.70;99.90
1888;DHT22;944;51.574;6.980;2023-02-28T05:24:32;-0.70;99.90
1888;DHT22;944;51.574;6.980;2023-02-28T05:26:59;-0.70;99.90
1888;DHT22;944;51.574;6.980;2023-02-28T05:29:26;-0.70;99.90
1888;DHT22;944;51.574;6.980;2023-02-28T05:31:53;-0.70;99.90
1888;DHT22;944;51.574;6.980;2023-02-28T05:34:20;-0.70;99.90
1888;DHT22;944;51.574;6.980;2023-02-28T05:36:47;-0.80;99.90
1888;DHT22;944;51.574;6.980;2023-02-28T05:39:14;-0.70;99.90
1888;DHT22;944;51.574;6.980;2023-02-28T05:41:43;-0.80;99.90
1888;DHT22;944;51.574;6.980;2023-02-28T05:44:10;-0.80;99.90
1888;DHT22;944;51.574;6.980;2023-02-28T05:46:37;-0.80;99.90
1888;DHT22;944;51.574;6.980;2023-02-28T05:49:04;-0.80;99.90
1888;DHT22;944;51.574;6.980;2023-02-28T05:51:31;-0.80;99.90
1888;DHT22;944;51.574;6.980;2023-02-28T05:54:00;-0.90;99.90
1888;DHT22;944;51.574;6.980;2023-02-28T05:56:27;-0.90;99.90
1888;DHT22;944;51.574;6.980;2023-02-28T05:58:56;-0.90;99.90
1888;DHT22;944;51.574;6.980;2023-02-28T06:01:30;-0.90;99.90
1888;DHT22;944;51.574;6.980;2023-02-28T06:03:59;-1.00;99.90
1888;DHT22;944;51.574;6.980;2023-02-28T06:06:26;-1.00;99.90
1888;DHT22;944;51.574;6.980;2023-02-28T06:08:53;-1.00;99.90
1888;DHT22;944;51.574;6.980;2023-02-28T06:11:21;-1.00;99.90
1888;DHT22;944;51.574;6.980;2023-02-28T06:13:53;-1.00;99.90
1888;DHT22;944;51.574;6.980;2023-02-28T06:16:30;-1.00;99.90
1888;DHT22;944;51.574;6.980;2023-02-28T06:19:01;-1.00;99.90
1888;DHT22;944;51.574;6.980;2023-02-28T06:21:29;-1.00;99.90
1888;DHT22;944;51.574;6.980;2023-02-28T06:23:57;-1.00;99.90
1888;DHT22;944;51.574;6.980;2023-02-28T06:26:25;-1.00;99.90
1888;DHT22;944;51.574;6.980;2023-02-28T06:28:52;-1.00;99.90
1888;DHT22;944;51.574;6.980;2023-02-28T06:35:36;-0.90;99.90
1888;DHT22;944;51.574;6.980;2023-02-28T06:38:03;-0.90;99.90
1888;DHT22;944;51.574;6.980;2023-02-28T06:40:32;-0.90;99.90
1888;DHT22;944;51.574;6.980;2023-02-28T06:43:01;-1.00;99.90
1888;DHT22;944;51.574;6.980;2023-02-28T06:45:28;-1.00;99.90
1888;DHT22;944;51.574;6.980;2023-02-28T06:47:55;-0.90;99.90
1888;DHT22;944;51.574;6.980;2023-02-28T06:50:23;-0.80;99.90
1888;DHT22;944;51.574;6.980;2023-02-28T07:02:41;0.00;99.90
1888;DHT22;944;51.574;6.980;2023-02-28T07:05:11;0.10;99.90
1888;DHT22;944;51.574;6.980;2023-02-28T07:07:39;0.20;99.90
1888;DHT22;944;51.574;6.980;2023-02-28T07:10:10;0.10;99.90
1888;DHT22;944;51.574;6.980;2023-02-28T07:12:38;0.10;99.90
1888;DHT22;944;51.574;6.980;2023-02-28T07:15:09;0.00;99.90
1888;DHT22;944;51.574;6.980;2023-02-28T07:17:38;0.00;99.90
1888;DHT22;944;51.574;6.980;2023-02-28T07:20:08;0.10;99.90
1888;DHT22;944;51.574;6.980;2023-02-28T07:22:36;0.30;99.90
1888;DHT22;944;51.574;6.980;2023-02-28T07:28:21;0.80;99.90
1888;DHT22;944;51.574;6.980;2023-02-28T07:34:30;1.00;99.90
1888;DHT22;944;51.574;6.980;2023-02-28T07:36:57;1.10;99.90
1888;DHT22;944;51.574;6.980;2023-02-28T07:39:25;1.50;99.90
1888;DHT22;944;51.574;6.980;2023-02-28T07:41:52;1.60;99.90
1888;DHT22;944;51.574;6.980;2023-02-28T07:44:31;1.70;99.90
1888;DHT22;944;51.574;6.980;2023-02-28T07:46:59;1.70;99.90
1888;DHT22;944;51.574;6.980;2023-02-28T07:49:26;1.60;99.90
1888;DHT22;944;51.574;6.980;2023-02-28T07:55:37;1.60;99.90
1888;DHT22;944;51.574;6.980;2023-02-28T07:58:05;1.90;99.90
1888;DHT22;944;51.574;6.980;2023-02-28T08:00:33;1.90;99.90
1888;DHT22;944;51.574;6.980;2023-02-28T08:03:00;2.00;99.90
1888;DHT22;944;51.574;6.980;2023-02-28T09:42:34;3.10;99.90
1888;DHT22;944;51.574;6.980;2023-02-28T09:45:06;3.00;99.90
1888;DHT22;944;51.574;6.980;2023-02-28T09:48:02;2.80;99.90
1888;DHT22;944;51.574;6.980;2023-02-28T09:50:59;2.80;99.90
1888;DHT22;944;51.574;6.980;2023-02-28T09:53:34;2.90;99.90
1888;DHT22;944;51.574;6.980;2023-02-28T09:59:59;2.90;99.90
1888;DHT22;944;51.574;6.980;2023-02-28T10:03:00;3.00;99.90
1888;DHT22;944;51.574;6.980;2023-02-28T10:05:51;3.10;99.90
1888;DHT22;944;51.574;6.980;2023-02-28T10:30:11;3.50;99.90
1888;DHT22;944;51.574;6.980;2023-02-28T10:32:50;3.70;99.90
1888;DHT22;944;51.574;6.980;2023-02-28T10:35:42;3.80;99.90
1888;DHT22;944;51.574;6.980;2023-02-28T10:38:51;4.00;99.90
1888;DHT22;944;51.574;6.980;2023-02-28T10:41:42;4.00;99.90
1888;DHT22;944;51.574;6.980;2023-02-28T10:51:51;3.90;99.90
1888;DHT22;944;51.574;6.980;2023-02-28T10:54:49;4.10;99.90
1888;DHT22;944;51.574;6.980;2023-02-28T10:57:24;3.80;99.90
1888;DHT22;944;51.574;6.980;2023-02-28T10:59:53;3.80;99.90
1888;DHT22;944;51.574;6.980;2023-02-28T11:02:43;3.70;99.90
1888;DHT22;944;51.574;6.980;2023-02-28T11:05:26;3.60;99.90
1888;DHT22;944;51.574;6.980;2023-02-28T11:11:43;3.70;99.90
1888;DHT22;944;51.574;6.980;2023-02-28T11:14:20;4.00;99.90
1888;DHT22;944;51.574;6.980;2023-02-28T11:16:49;4.10;99.90
1888;DHT22;944;51.574;6.980;2023-02-28T11:19:23;4.20;99.90
1888;DHT22;944;51.574;6.980;2023-02-28T11:21:55;4.10;99.90
1888;DHT22;944;51.574;6.980;2023-02-28T11:24:26;4.10;99.90
1888;DHT22;944;51.574;6.980;2023-02-28T11:27:00;4.10;99.90
1888;DHT22;944;51.574;6.980;2023-02-28T11:29:31;4.00;99.90
1888;DHT22;944;51.574;6.980;2023-02-28T11:35:02;3.80;99.90
1888;DHT22;944;51.574;6.980;2023-02-28T11:37:31;3.80;99.90
1888;DHT22;944;51.574;6.980;2023-02-28T11:39:59;3.80;99.90
1888;DHT22;944;51.574;6.980;2023-02-28T11:42:35;4.00;99.90
1888;DHT22;944;51.574;6.980;2023-02-28T11:45:41;4.10;99.90
1888;DHT22;944;51.574;6.980;2023-02-28T11:48:21;4.20;99.90
1888;DHT22;944;51.574;6.980;2023-02-28T11:50:58;4.30;99.90
1888;DHT22;944;51.574;6.980;2023-02-28T11:53:46;4.30;99.90
1888;DHT22;944;51.574;6.980;2023-02-28T11:56:26;4.30;99.90
1888;DHT22;944;51.574;6.980;2023-02-28T11:59:41;4.20;99.90
1888;DHT22;944;51.574;6.980;2023-02-28T12:13:48;4.30;99.90
1888;DHT22;944;51.574;6.980;2023-02-28T12:20:33;4.40;99.90
1888;DHT22;944;51.574;6.980;2023-02-28T12:23:21;4.70;99.90
1888;DHT22;944;51.574;6.980;2023-02-28T12:26:29;4.70;99.90
1888;DHT22;944;51.574;6.980;2023-02-28T12:29:19;4.70;99.90
1888;DHT22;944;51.574;6.980;2023-02-28T12:32:04;4.60;99.90
1888;DHT22;944;51.574;6.980;2023-02-28T12:34:41;4.60;99.90
1888;DHT22;944;51.574;6.980;2023-02-28T12:40:58;4.60;99.90
1888;DHT22;944;51.574;6.980;2023-02-28T12:43:42;4.50;99.90
1888;DHT22;944;51.574;6.980;2023-02-28T12:46:15;4.70;99.90
1888;DHT22;944;51.574;6.980;2023-02-28T12:48:50;4.70;99.90
1888;DHT22;944;51.574;6.980;2023-02-28T12:51:25;4.80;99.90
1888;DHT22;944;51.574;6.980;2023-02-28T12:54:12;4.80;99.90
1888;DHT22;944;51.574;6.980;2023-02-28T12:56:49;4.70;99.90
1888;DHT22;944;51.574;6.980;2023-02-28T12:59:59;4.80;99.90
1888;DHT22;944;51.574;6.980;2023-02-28T13:02:54;5.00;99.90
1888;DHT22;944;51.574;6.980;2023-02-28T13:09:20;5.00;99.90
1888;DHT22;944;51.574;6.980;2023-02-28T13:11:53;4.90;99.90
1888;DHT22;944;51.574;6.980;2023-02-28T13:14:27;5.00;99.90
1888;DHT22;944;51.574;6.980;2023-02-28T13:17:02;4.70;99.90
1888;DHT22;944;51.574;6.980;2023-02-28T13:19:38;4.60;99.90
1888;DHT22;944;51.574;6.980;2023-02-28T13:22:17;4.60;99.90
1888;DHT22;944;51.574;6.980;2023-02-28T13:32:42;4.30;99.90
1888;DHT22;944;51.574;6.980;2023-02-28T13:38:40;4.40;99.90
1888;DHT22;944;51.574;6.980;2023-02-28T13:41:40;4.30;99.90
1888;DHT22;944;51.574;6.980;2023-02-28T13:44:10;4.40;99.90
1888;DHT22;944;51.574;6.980;2023-02-28T13:47:22;4.40;99.90
1888;DHT22;944;51.574;6.980;2023-02-28T13:49:53;4.30;99.90
1888;DHT22;944;51.574;6.980;2023-02-28T13:52:22;4.40;99.90
1888;DHT22;944;51.574;6.980;2023-02-28T13:58:09;4.60;99.90
1888;DHT22;944;51.574;6.980;2023-02-28T14:01:00;4.60;99.90
1888;DHT22;944;51.574;6.980;2023-02-28T14:07:19;4.80;99.90
1888;DHT22;944;51.574;6.980;2023-02-28T14:09:56;4.80;99.90
1888;DHT22;944;51.574;6.980;2023-02-28T14:12:53;4.90;99.90
1888;DHT22;944;51.574;6.980;2023-02-28T14:15:41;4.70;99.90
1888;DHT22;944;51.574;6.980;2023-02-28T14:22:02;4.70;99.90
1888;DHT22;944;51.574;6.980;2023-02-28T14:24:54;4.70;99.90
1888;DHT22;944;51.574;6.980;2023-02-28T14:27:40;4.80;99.90
1888;DHT22;944;51.574;6.980;2023-02-28T14:34:05;4.80;99.90
1888;DHT22;944;51.574;6.980;2023-02-28T14:36:44;4.90;99.90
1888;DHT22;944;51.574;6.980;2023-02-28T14:39:14;4.60;99.90
1888;DHT22;944;51.574;6.980;2023-02-28T14:41:45;4.60;99.90
1888;DHT22;944;51.574;6.980;2023-02-28T14:44:17;4.60;99.90
1888;DHT22;944;51.574;6.980;2023-02-28T14:46:48;4.50;99.90
1888;DHT22;944;51.574;6.980;2023-02-28T14:49:19;4.40;99.90
1888;DHT22;944;51.574;6.980;2023-02-28T14:51:49;4.60;99.90
1888;DHT22;944;51.574;6.980;2023-02-28T14:54:19;4.30;99.90
1888;DHT22;944;51.574;6.980;2023-02-28T14:56:51;4.40;99.90
1888;DHT22;944;51.574;6.980;2023-02-28T14:59:28;4.40;99.90
1888;DHT22;944;51.574;6.980;2023-02-28T15:02:15;4.50;99.90
1888;DHT22;944;51.574;6.980;2023-02-28T15:04:54;4.40;99.90
1888;DHT22;944;51.574;6.980;2023-02-28T15:11:07;4.50;99.90
1888;DHT22;944;51.574;6.980;2023-02-28T15:17:25;4.60;99.90
1888;DHT22;944;51.574;6.980;2023-02-28T15:19:53;4.60;99.90
1888;DHT22;944;51.574;6.980;2023-02-28T15:26:01;4.60;99.90
1888;DHT22;944;51.574;6.980;2023-02-28T15:28:29;4.60;99.90
1888;DHT22;944;51.574;6.980;2023-02-28T15:30:58;4.50;99.90
1888;DHT22;944;51.574;6.980;2023-02-28T15:33:29;4.50;99.90
1888;DHT22;944;51.574;6.980;2023-02-28T15:39:42;4.50;99.90
1888;DHT22;944;51.574;6.980;2023-02-28T15:49:18;4.50;99.90
1888;DHT22;944;51.574;6.980;2023-02-28T15:55:28;4.50;99.90
1888;DHT22;944;51.574;6.980;2023-02-28T15:57:59;4.50;99.90
1888;DHT22;944;51.574;6.980;2023-02-28T16:00:28;4.50;99.90
1888;DHT22;944;51.574;6.980;2023-02-28T16:03:00;4.50;99.90
1888;DHT22;944;51.574;6.980;2023-02-28T16:05:29;4.50;99.90
1888;DHT22;944;51.574;6.980;2023-02-28T16:11:41;4.40;99.90
1888;DHT22;944;51.574;6.980;2023-02-28T16:17:50;4.30;99.90
1888;DHT22;944;51.574;6.980;2023-02-28T16:20:20;4.30;99.90
1888;DHT22;944;51.574;6.980;2023-02-28T16:22:50;4.40;99.90
1888;DHT22;944;51.574;6.980;2023-02-28T16:28:58;4.30;99.90
1888;DHT22;944;51.574;6.980;2023-02-28T16:31:25;4.30;99.90
1888;DHT22;944;51.574;6.980;2023-02-28T16:33:53;4.20;99.90
1888;DHT22;944;51.574;6.980;2023-02-28T16:36:22;4.20;99.90
1888;DHT22;944;51.574;6.980;2023-02-28T16:38:51;4.20;99.90
1888;DHT22;944;51.574;6.980;2023-02-28T16:41:20;4.20;99.90
1888;DHT22;944;51.574;6.980;2023-02-28T16:43:52;4.10;99.90
1888;DHT22;944;51.574;6.980;2023-02-28T16:46:32;4.10;99.90
1888;DHT22;944;51.574;6.980;2023-02-28T16:49:00;4.10;99.90
1888;DHT22;944;51.574;6.980;2023-02-28T16:55:09;4.10;99.90
1888;DHT22;944;51.574;6.980;2023-02-28T16:57:37;4.10;99.90
1888;DHT22;944;51.574;6.980;2023-02-28T17:03:45;4.00;99.90
1888;DHT22;944;51.574;6.980;2023-02-28T17:06:17;4.00;99.90
1888;DHT22;944;51.574;6.980;2023-02-28T17:08:47;4.00;99.90
1888;DHT22;944;51.574;6.980;2023-02-28T17:14:56;3.90;99.90
1888;DHT22;944;51.574;6.980;2023-02-28T17:17:23;3.90;99.90
1888;DHT22;944;51.574;6.980;2023-02-28T17:19:50;3.80;99.90
1888;DHT22;944;51.574;6.980;2023-02-28T17:22:18;3.80;99.90
